Time;durP1;ratioP1;P1;durP2;ratioP2;P2;SDS_P1;SDS_P2;PMS_P1;PMS_P2;Temp;Humidity;BMP_temperature;BMP_pressure;BME280_temperature;BME280_humidity;BME280_pressure;Samples;Min_cycle;Max_cycle;Signal;HPM_P1;HPM_P2
2024/02/23 00:01:53;;;;;;;1.47;0.70;;;11.00;99.90;;;;;;4975489;28;20479;-65
2024/02/23 00:04:19;;;;;;;1.20;0.90;;;11.00;99.90;;;;;;4975296;28;20486;-66
2024/02/23 00:06:46;;;;;;;1.50;0.97;;;11.00;99.90;;;;;;4976044;28;20490;-65
2024/02/23 00:09:15;;;;;;;1.00;0.80;;;11.10;99.90;;;;;;4975284;28;20477;-66
2024/02/23 00:11:44;;;;;;;2.93;0.80;;;11.00;99.90;;;;;;4974596;28;20450;-65
2024/02/23 00:14:11;;;;;;;1.33;0.80;;;11.00;99.90;;;;;;4974693;28;20938;-66
2024/02/23 00:16:41;;;;;;;1.50;1.00;;;11.00;99.90;;;;;;4974594;28;20530;-66
2024/02/23 00:19:09;;;;;;;1.60;1.07;;;11.00;99.90;;;;;;4974018;28;20468;-64
2024/02/23 00:21:37;;;;;;;1.50;1.03;;;11.00;99.90;;;;;;4974596;28;20491;-65
2024/02/23 00:24:05;;;;;;;1.40;1.10;;;11.10;99.90;;;;;;4974547;28;20502;-65
2024/02/23 00:26:35;;;;;;;2.30;1.03;;;11.10;99.90;;;;;;4974705;28;20566;-65
2024/02/23 00:29:04;;;;;;;2.77;1.20;;;11.10;99.90;;;;;;4973686;28;20447;-65
2024/02/23 00:31:31;;;;;;;1.40;0.93;;;11.10;99.90;;;;;;4973791;28;20487;-65
2024/02/23 00:33:57;;;;;;;2.37;1.13;;;11.20;99.90;;;;;;4974678;28;20530;-65
2024/02/23 00:36:24;;;;;;;2.33;1.10;;;11.20;99.90;;;;;;4974178;28;20471;-65
2024/02/23 00:38:51;;;;;;;1.67;1.10;;;11.20;99.90;;;;;;4974306;28;20780;-66
2024/02/23 00:41:18;;;;;;;2.70;1.20;;;11.20;99.90;;;;;;4973780;28;20483;-65
2024/02/23 00:43:47;;;;;;;2.47;1.40;;;11.20;99.90;;;;;;4974015;28;20443;-66
2024/02/23 00:46:14;;;;;;;1.40;1.03;;;11.10;99.90;;;;;;4973759;28;20447;-66
2024/02/23 00:48:41;;;;;;;1.50;0.83;;;11.10;99.90;;;;;;4973903;28;20458;-65
2024/02/23 00:51:08;;;;;;;2.60;1.00;;;11.10;99.90;;;;;;4973585;28;20474;-64
2024/02/23 00:53:35;;;;;;;2.53;1.10;;;11.10;99.90;;;;;;4975914;28;20866;-65
2024/02/23 00:56:02;;;;;;;1.10;0.80;;;11.10;99.90;;;;;;4974337;28;20542;-64
2024/02/23 00:58:28;;;;;;;1.20;1.00;;;11.10;99.90;;;;;;4973630;28;20852;-64
2024/02/23 01:00:57;;;;;;;1.20;0.80;;;11.10;99.90;;;;;;4973688;28;20585;-64
2024/02/23 01:03:23;;;;;;;3.53;1.10;;;11.10;99.90;;;;;;4973574;28;20447;-64
2024/02/23 01:05:50;;;;;;;1.10;0.90;;;11.20;99.90;;;;;;4973768;28;20447;-64
2024/02/23 01:08:17;;;;;;;2.47;1.50;;;11.20;99.90;;;;;;4973782;28;21011;-64
2024/02/23 01:10:43;;;;;;;2.07;1.00;;;11.30;99.90;;;;;;4973023;28;20554;-65
2024/02/23 01:13:10;;;;;;;1.63;1.00;;;11.20;99.90;;;;;;4973493;28;20542;-65
2024/02/23 01:15:37;;;;;;;1.50;0.93;;;11.20;99.90;;;;;;4973961;28;20458;-64
2024/02/23 01:18:07;;;;;;;2.40;1.10;;;11.20;99.90;;;;;;4973504;28;20483;-64
2024/02/23 01:20:34;;;;;;;1.93;0.90;;;11.20;99.90;;;;;;4972742;28;20476;-65
2024/02/23 01:23:01;;;;;;;1.50;1.20;;;11.20;99.90;;;;;;4973321;28;20478;-65
2024/02/23 01:25:28;;;;;;;2.10;1.10;;;11.30;99.90;;;;;;4973232;28;20451;-65
2024/02/23 01:27:55;;;;;;;1.30;1.00;;;11.30;99.90;;;;;;4974107;28;20542;-64
2024/02/23 01:30:22;;;;;;;1.40;0.80;;;11.30;99.90;;;;;;4973276;28;21007;-64
2024/02/23 01:32:50;;;;;;;1.57;0.80;;;11.40;99.90;;;;;;4973522;28;20450;-65
2024/02/23 01:35:18;;;;;;;2.20;1.17;;;11.30;99.90;;;;;;4973275;28;20498;-65
2024/02/23 01:37:45;;;;;;;1.40;1.00;;;11.40;99.90;;;;;;4973068;28;20439;-64
2024/02/23 01:40:12;;;;;;;1.47;1.30;;;11.40;99.90;;;;;;4972692;28;20464;-65
2024/02/23 01:42:39;;;;;;;1.50;1.30;;;11.50;99.90;;;;;;4972331;28;20499;-64
2024/02/23 01:45:07;;;;;;;1.77;1.03;;;11.50;99.90;;;;;;4973340;28;20972;-65
2024/02/23 01:47:34;;;;;;;1.87;0.90;;;11.50;99.90;;;;;;4973236;28;20465;-68
2024/02/23 01:50:01;;;;;;;2.40;2.30;;;11.50;99.90;;;;;;4972613;28;20467;-65
2024/02/23 01:52:30;;;;;;;2.17;0.97;;;11.50;99.90;;;;;;4972964;28;20521;-64
2024/02/23 01:54:57;;;;;;;1.27;0.90;;;11.60;99.90;;;;;;4972824;28;20811;-64
2024/02/23 01:57:25;;;;;;;3.07;1.23;;;11.60;99.90;;;;;;4972886;28;20797;-65
2024/02/23 01:59:52;;;;;;;1.40;1.10;;;11.70;99.90;;;;;;4972741;28;20478;-65
2024/02/23 02:02:19;;;;;;;1.50;1.03;;;11.60;99.90;;;;;;4972904;28;21094;-64
2024/02/23 02:04:46;;;;;;;1.57;0.90;;;11.60;99.90;;;;;;4973104;28;20582;-65
2024/02/23 02:07:14;;;;;;;1.50;0.90;;;11.70;99.90;;;;;;4973387;28;20444;-64
2024/02/23 02:09:42;;;;;;;1.20;1.10;;;11.60;99.90;;;;;;4972165;28;20502;-64
2024/02/23 02:12:09;;;;;;;2.80;1.03;;;11.60;99.90;;;;;;4972903;28;20451;-65
2024/02/23 02:14:36;;;;;;;1.00;0.90;;;11.60;99.90;;;;;;4972862;28;20975;-65
2024/02/23 02:17:03;;;;;;;1.57;0.90;;;11.50;99.90;;;;;;4972681;28;20770;-65
2024/02/23 02:19:30;;;;;;;2.80;1.00;;;11.50;99.90;;;;;;4972391;28;20463;-64
2024/02/23 02:21:57;;;;;;;1.00;0.70;;;11.50;99.90;;;;;;4972582;28;20845;-64
2024/02/23 02:24:24;;;;;;;1.07;0.80;;;11.50;99.90;;;;;;4972786;28;20443;-65
2024/02/23 02:26:52;;;;;;;1.23;0.70;;;11.50;99.90;;;;;;4972574;28;20958;-65
2024/02/23 02:31:54;;;;;;;0.97;0.60;;;11.40;99.90;;;;;;4872404;26;20540;-62
2024/02/23 02:34:21;;;;;;;2.27;0.90;;;11.30;99.90;;;;;;4999072;28;20465;-61
2024/02/23 02:36:48;;;;;;;2.60;0.70;;;11.20;99.90;;;;;;4998994;28;20445;-62
2024/02/23 02:39:15;;;;;;;0.90;0.57;;;11.10;99.90;;;;;;4999473;28;20462;-62
2024/02/23 02:41:42;;;;;;;1.90;0.60;;;11.10;99.90;;;;;;5000001;28;20553;-62
2024/02/23 02:44:10;;;;;;;2.00;0.73;;;11.10;99.90;;;;;;4999056;28;20528;-62
2024/02/23 02:46:37;;;;;;;0.90;0.70;;;11.00;99.90;;;;;;5000025;28;20482;-63
2024/02/23 02:49:04;;;;;;;0.90;0.60;;;10.90;99.90;;;;;;4999898;28;20442;-62
2024/02/23 02:51:31;;;;;;;0.83;0.57;;;10.90;99.90;;;;;;5000609;28;20451;-62
2024/02/23 02:53:58;;;;;;;0.90;0.60;;;10.80;99.90;;;;;;5003405;28;20446;-61
2024/02/23 02:56:25;;;;;;;3.23;0.63;;;10.80;99.90;;;;;;5004641;28;20481;-62
2024/02/23 02:58:52;;;;;;;1.00;0.53;;;10.80;99.90;;;;;;5003773;28;20450;-62
2024/02/23 03:01:20;;;;;;;1.00;0.70;;;10.70;99.90;;;;;;5003875;28;20902;-63
2024/02/23 03:03:47;;;;;;;1.53;0.77;;;10.70;99.90;;;;;;5003487;28;20482;-61
2024/02/23 03:06:14;;;;;;;2.40;0.60;;;10.70;99.90;;;;;;5004777;28;20450;-63
2024/02/23 03:08:44;;;;;;;0.90;0.60;;;10.60;99.90;;;;;;5004159;28;20434;-63
2024/02/23 03:11:12;;;;;;;1.40;0.67;;;10.60;99.90;;;;;;5002768;28;20517;-62
2024/02/23 03:13:39;;;;;;;0.90;0.60;;;10.60;99.90;;;;;;5003319;28;20450;-63
2024/02/23 03:16:05;;;;;;;1.03;0.70;;;10.60;99.90;;;;;;5003534;28;20907;-63
2024/02/23 03:18:34;;;;;;;1.00;0.70;;;10.50;99.90;;;;;;5004726;28;20537;-62
2024/02/23 03:21:00;;;;;;;1.53;0.80;;;10.50;99.90;;;;;;5003515;28;20903;-63
2024/02/23 03:23:28;;;;;;;0.90;0.60;;;10.40;99.90;;;;;;5003543;28;20536;-63
2024/02/23 03:25:55;;;;;;;1.20;0.70;;;10.40;99.90;;;;;;5003830;28;20450;-63
2024/02/23 03:28:21;;;;;;;1.00;0.60;;;10.40;99.90;;;;;;5003760;28;20481;-61
2024/02/23 03:30:48;;;;;;;0.90;0.70;;;10.40;99.90;;;;;;5001641;28;20471;-63
2024/02/23 03:33:15;;;;;;;1.00;0.60;;;10.40;99.90;;;;;;5001453;28;20474;-62
2024/02/23 03:35:43;;;;;;;1.03;0.67;;;10.40;99.90;;;;;;5001858;28;20482;-61
2024/02/23 03:38:10;;;;;;;1.37;1.00;;;10.30;99.90;;;;;;5002044;28;20510;-63
2024/02/23 03:40:39;;;;;;;1.10;0.87;;;9.60;99.90;;;;;;5001059;28;20513;-61
2024/02/23 03:43:06;;;;;;;1.63;0.70;;;10.30;99.90;;;;;;5000942;28;20478;-62
2024/02/23 03:45:33;;;;;;;0.80;0.60;;;10.30;99.90;;;;;;5001050;28;20450;-62
2024/02/23 03:48:01;;;;;;;0.90;0.60;;;10.30;99.90;;;;;;5001301;28;20482;-62
2024/02/23 03:50:27;;;;;;;1.20;0.70;;;10.10;99.90;;;;;;4999830;28;20877;-60
2024/02/23 03:52:56;;;;;;;6.07;0.63;;;10.40;99.90;;;;;;5000383;28;21043;-62
2024/02/23 03:55:23;;;;;;;1.00;0.73;;;10.90;99.90;;;;;;5001165;28;20603;-61
2024/02/23 03:57:50;;;;;;;1.20;0.70;;;10.20;99.90;;;;;;5000582;28;20560;-59
2024/02/23 04:00:19;;;;;;;1.13;0.70;;;10.20;99.90;;;;;;5000294;28;20995;-62
2024/02/23 04:02:46;;;;;;;1.73;0.70;;;10.20;99.90;;;;;;5000096;28;20530;-61
2024/02/23 04:05:15;;;;;;;4.23;0.63;;;10.30;99.90;;;;;;4999449;28;20481;-62
2024/02/23 04:07:42;;;;;;;1.20;0.70;;;10.30;99.90;;;;;;5000546;28;20480;-60
2024/02/23 04:10:16;;;;;;;0.80;0.50;;;10.30;99.90;;;;;;4999539;28;20873;-62
2024/02/23 04:12:44;;;;;;;1.17;0.83;;;10.30;99.90;;;;;;4999202;28;20450;-62
2024/02/23 04:15:11;;;;;;;1.53;0.70;;;10.40;99.90;;;;;;4998412;28;20534;-62
2024/02/23 04:17:38;;;;;;;2.10;1.20;;;10.80;99.90;;;;;;5001351;28;20446;-62
2024/02/23 04:20:14;;;;;;;1.30;0.77;;;10.20;99.90;;;;;;4999337;28;20504;-63
2024/02/23 04:22:41;;;;;;;1.40;0.60;;;10.20;99.90;;;;;;4998044;28;20490;-63
2024/02/23 04:25:13;;;;;;;1.00;0.50;;;10.20;99.90;;;;;;4997799;28;20497;-62
2024/02/23 04:27:39;;;;;;;2.83;0.70;;;10.00;99.90;;;;;;4999207;28;20517;-62
2024/02/23 04:30:08;;;;;;;1.53;0.70;;;10.10;99.90;;;;;;4999203;28;20878;-62
2024/02/23 04:32:35;;;;;;;1.00;0.60;;;10.10;99.90;;;;;;5000930;28;20447;-63
2024/02/23 04:35:01;;;;;;;3.07;0.80;;;10.00;99.90;;;;;;5002142;28;20451;-61
2024/02/23 04:37:28;;;;;;;2.23;0.80;;;10.00;99.90;;;;;;5002591;28;20450;-61
2024/02/23 04:39:55;;;;;;;1.10;0.80;;;9.90;99.90;;;;;;5001908;28;20489;-62
2024/02/23 04:42:23;;;;;;;1.90;0.63;;;9.70;99.90;;;;;;5000949;28;20513;-61
2024/02/23 04:44:52;;;;;;;0.80;0.50;;;10.00;99.90;;;;;;5001574;28;20454;-61
2024/02/23 04:47:22;;;;;;;2.00;0.90;;;9.80;99.90;;;;;;5001267;28;20463;-63
2024/02/23 04:49:49;;;;;;;1.37;0.70;;;9.90;99.90;;;;;;4999751;28;20505;-63
2024/02/23 04:52:16;;;;;;;1.03;0.67;;;9.80;99.90;;;;;;5000441;28;20540;-61
2024/02/23 04:54:45;;;;;;;0.90;0.70;;;9.80;99.90;;;;;;5000993;28;20494;-62
2024/02/23 04:57:12;;;;;;;1.20;0.80;;;9.50;99.90;;;;;;5002926;28;20477;-61
2024/02/23 04:59:40;;;;;;;1.67;0.80;;;9.30;99.90;;;;;;5004963;28;20498;-62
2024/02/23 05:02:07;;;;;;;1.87;0.73;;;9.70;99.90;;;;;;5003630;28;20492;-62
2024/02/23 05:04:34;;;;;;;0.90;0.60;;;9.70;99.90;;;;;;5001456;28;20481;-62
2024/02/23 05:07:01;;;;;;;0.90;0.70;;;9.70;99.90;;;;;;5000917;28;20946;-62
2024/02/23 05:09:29;;;;;;;1.33;0.70;;;9.70;99.90;;;;;;5001069;28;20490;-63
2024/02/23 05:11:56;;;;;;;1.97;0.90;;;9.70;99.90;;;;;;5004575;28;20450;-63
2024/02/23 05:14:25;;;;;;;2.97;0.60;;;9.70;99.90;;;;;;5001658;28;20449;-63
2024/02/23 05:16:53;;;;;;;0.80;0.60;;;9.60;99.90;;;;;;5000713;28;20510;-62
2024/02/23 05:19:23;;;;;;;1.00;0.70;;;9.60;99.90;;;;;;5000448;28;20715;-60
2024/02/23 05:21:50;;;;;;;1.27;0.90;;;9.60;99.90;;;;;;5001446;28;20474;-63
2024/02/23 05:24:17;;;;;;;1.20;0.60;;;9.60;99.90;;;;;;5002363;28;20453;-63
2024/02/23 05:26:44;;;;;;;1.00;0.70;;;9.60;99.90;;;;;;4999556;28;20437;-61
2024/02/23 05:29:12;;;;;;;0.90;0.60;;;9.50;99.90;;;;;;4999739;28;20469;-62
2024/02/23 05:31:48;;;;;;;1.03;0.60;;;9.50;99.90;;;;;;5001612;28;20474;-61
2024/02/23 05:34:16;;;;;;;1.23;0.60;;;9.40;99.90;;;;;;4999749;28;20453;-61
2024/02/23 05:36:44;;;;;;;0.80;0.60;;;9.30;99.90;;;;;;4999332;28;20454;-61
2024/02/23 05:39:10;;;;;;;0.90;0.53;;;9.70;99.90;;;;;;4998504;28;20471;-62
2024/02/23 05:41:37;;;;;;;0.80;0.50;;;9.10;99.90;;;;;;4999420;28;20478;-62
2024/02/23 05:44:06;;;;;;;1.00;0.57;;;9.30;99.90;;;;;;5000247;28;20486;-61
2024/02/23 05:46:33;;;;;;;0.90;0.60;;;8.70;99.90;;;;;;4999380;28;20484;-61
2024/02/23 05:49:00;;;;;;;1.00;0.60;;;9.00;99.90;;;;;;4999628;28;20489;-63
2024/02/23 05:51:30;;;;;;;0.90;0.80;;;8.80;99.90;;;;;;4999377;28;20517;-62
2024/02/23 05:53:57;;;;;;;1.43;0.90;;;8.70;99.90;;;;;;4999949;28;20445;-62
2024/02/23 05:56:24;;;;;;;1.00;0.70;;;8.70;99.90;;;;;;4999498;28;20434;-62
2024/02/23 05:58:52;;;;;;;0.80;0.60;;;8.60;99.90;;;;;;4998767;28;20466;-61
2024/02/23 06:01:19;;;;;;;1.00;0.57;;;8.60;99.90;;;;;;4998470;28;20445;-61
2024/02/23 06:03:48;;;;;;;0.90;0.60;;;8.50;99.90;;;;;;4999510;28;20559;-63
2024/02/23 06:06:15;;;;;;;1.00;0.70;;;8.40;99.90;;;;;;5000716;28;20540;-62
2024/02/23 06:08:43;;;;;;;4.37;1.10;;;8.50;99.90;;;;;;5001425;28;20484;-61
2024/02/23 06:11:13;;;;;;;1.27;0.60;;;8.70;99.90;;;;;;4998636;28;20480;-61
2024/02/23 06:13:40;;;;;;;1.57;0.80;;;8.50;99.90;;;;;;4998552;28;20477;-60
2024/02/23 06:16:13;;;;;;;0.83;0.70;;;8.90;99.90;;;;;;4997952;28;20513;-59
2024/02/23 06:18:40;;;;;;;1.00;0.60;;;8.50;99.90;;;;;;4997525;28;20546;-62
2024/02/23 06:21:15;;;;;;;0.80;0.50;;;8.40;99.90;;;;;;4998509;28;20528;-60
2024/02/23 06:23:46;;;;;;;1.33;0.60;;;8.60;99.90;;;;;;4999706;28;20535;-61
2024/02/23 06:26:14;;;;;;;0.80;0.60;;;8.50;99.90;;;;;;5001242;28;20484;-60
2024/02/23 06:28:42;;;;;;;0.90;0.60;;;8.50;99.90;;;;;;5002942;28;20481;-62
2024/02/23 06:31:09;;;;;;;1.77;0.60;;;8.40;99.90;;;;;;5003698;28;20564;-62
2024/02/23 06:33:40;;;;;;;1.27;0.73;;;8.40;99.90;;;;;;5001696;28;20473;-62
2024/02/23 06:36:08;;;;;;;1.10;0.80;;;8.40;99.90;;;;;;5001717;28;20441;-62
2024/02/23 06:38:37;;;;;;;0.90;0.60;;;8.50;99.90;;;;;;5002263;28;20560;-62
2024/02/23 06:41:10;;;;;;;0.90;0.70;;;9.10;99.90;;;;;;5001826;28;20555;-62
2024/02/23 06:43:37;;;;;;;3.07;0.80;;;8.40;99.90;;;;;;5000741;28;20575;-62
2024/02/23 06:46:07;;;;;;;1.20;0.70;;;8.50;99.90;;;;;;5001204;28;20452;-62
2024/02/23 06:48:34;;;;;;;0.90;0.60;;;8.50;99.90;;;;;;5002370;28;20996;-61
2024/02/23 06:51:01;;;;;;;1.40;0.70;;;8.50;99.90;;;;;;5003021;28;20474;-60
2024/02/23 06:53:28;;;;;;;1.10;0.70;;;8.40;99.90;;;;;;5003578;28;20872;-61
2024/02/23 06:55:55;;;;;;;1.20;0.70;;;8.40;99.90;;;;;;5004432;28;20487;-62
2024/02/23 06:58:23;;;;;;;1.37;0.60;;;8.30;99.90;;;;;;5004981;28;20462;-60
2024/02/23 07:00:50;;;;;;;1.93;0.80;;;8.50;99.90;;;;;;5005438;28;20475;-61
2024/02/23 07:03:17;;;;;;;1.20;0.70;;;8.50;99.90;;;;;;5004710;28;20484;-61
2024/02/23 07:05:55;;;;;;;0.87;0.63;;;8.40;99.90;;;;;;5003560;28;20477;-62
2024/02/23 07:08:32;;;;;;;1.10;0.80;;;8.50;99.90;;;;;;5002874;28;20456;-63
2024/02/23 07:11:06;;;;;;;1.07;0.70;;;9.00;99.90;;;;;;5002102;28;20531;-63
2024/02/23 07:13:44;;;;;;;2.17;1.00;;;8.50;99.90;;;;;;5001235;28;20453;-62
2024/02/23 07:16:11;;;;;;;1.30;0.80;;;8.50;99.90;;;;;;5002201;28;20458;-62
2024/02/23 07:18:40;;;;;;;1.37;0.83;;;8.60;99.90;;;;;;5002205;28;20491;-61
2024/02/23 07:21:07;;;;;;;0.90;0.70;;;8.90;99.90;;;;;;5002095;28;20485;-63
2024/02/23 07:23:34;;;;;;;1.27;0.70;;;8.70;99.90;;;;;;5001206;28;20485;-62
2024/02/23 07:26:02;;;;;;;1.10;0.73;;;8.70;99.90;;;;;;5001537;28;20450;-61
2024/02/23 07:28:32;;;;;;;1.20;0.87;;;8.80;99.90;;;;;;5002092;28;20473;-61
2024/02/23 07:31:01;;;;;;;3.53;0.80;;;8.80;99.90;;;;;;5001617;28;20893;-60
2024/02/23 07:33:28;;;;;;;1.40;1.03;;;8.90;99.90;;;;;;5002142;28;20438;-62
2024/02/23 07:35:55;;;;;;;1.60;1.30;;;8.90;99.90;;;;;;5000716;28;20451;-63
2024/02/23 07:38:25;;;;;;;1.07;0.70;;;9.00;99.90;;;;;;4999796;28;20842;-62
2024/02/23 07:40:52;;;;;;;1.87;1.00;;;10.20;99.90;;;;;;5000687;28;20474;-60
2024/02/23 07:43:19;;;;;;;1.40;0.90;;;9.10;99.90;;;;;;5000625;28;20505;-61
2024/02/23 07:45:46;;;;;;;2.50;0.90;;;9.10;99.90;;;;;;5000592;28;20954;-61
2024/02/23 07:48:15;;;;;;;1.10;0.80;;;9.20;99.90;;;;;;5001209;28;20443;-62
2024/02/23 07:50:44;;;;;;;1.13;0.90;;;9.10;99.90;;;;;;4999606;28;20559;-63
2024/02/23 07:53:11;;;;;;;1.40;0.80;;;9.10;99.90;;;;;;5001544;28;20480;-62
2024/02/23 07:55:38;;;;;;;0.90;0.70;;;9.00;99.90;;;;;;5002927;28;20460;-61
2024/02/23 07:58:06;;;;;;;1.63;1.10;;;8.90;99.90;;;;;;5004251;28;20481;-63
2024/02/23 08:00:34;;;;;;;1.33;0.80;;;9.10;99.90;;;;;;5002844;28;20482;-61
2024/02/23 08:03:01;;;;;;;1.10;0.70;;;9.10;99.90;;;;;;5002561;28;20548;-62
2024/02/23 08:05:32;;;;;;;1.30;0.70;;;9.10;99.90;;;;;;5002807;28;20501;-62
2024/02/23 08:08:04;;;;;;;1.10;1.00;;;9.20;99.90;;;;;;5003536;28;20447;-61
2024/02/23 08:10:31;;;;;;;1.30;0.80;;;9.10;99.90;;;;;;5003786;28;20470;-60
2024/02/23 08:13:00;;;;;;;1.20;0.83;;;9.20;99.90;;;;;;5003516;28;20456;-61
2024/02/23 08:15:27;;;;;;;1.00;0.80;;;9.30;99.90;;;;;;5002980;28;20448;-61
2024/02/23 08:17:54;;;;;;;1.07;0.97;;;9.30;99.90;;;;;;5002258;28;20469;-60
2024/02/23 08:20:21;;;;;;;1.60;0.70;;;9.40;99.90;;;;;;5001096;28;20469;-61
2024/02/23 08:22:49;;;;;;;1.00;0.80;;;9.40;99.90;;;;;;5000837;28;20521;-62
2024/02/23 08:25:18;;;;;;;1.70;1.20;;;9.50;99.90;;;;;;5000765;28;20509;-62
2024/02/23 08:27:45;;;;;;;1.87;0.90;;;9.60;99.90;;;;;;4999440;28;20462;-58
2024/02/23 08:30:14;;;;;;;1.03;0.93;;;9.60;99.90;;;;;;5015020;23;20593;-67
2024/02/23 08:32:41;;;;;;;1.10;0.80;;;9.70;99.90;;;;;;4993847;28;20446;-66
2024/02/23 08:35:09;;;;;;;1.37;0.80;;;9.80;99.90;;;;;;4994059;28;20465;-66
2024/02/23 08:37:36;;;;;;;1.77;0.83;;;9.60;99.90;;;;;;4994020;28;20441;-66
2024/02/23 08:40:06;;;;;;;2.80;0.90;;;9.70;99.90;;;;;;4993336;28;20586;-66
2024/02/23 08:42:32;;;;;;;0.90;0.67;;;9.70;99.90;;;;;;4993324;28;21020;-66
2024/02/23 08:45:00;;;;;;;0.93;0.70;;;9.70;99.90;;;;;;4993418;28;20926;-66
2024/02/23 08:47:28;;;;;;;1.83;0.70;;;9.80;99.90;;;;;;4993092;28;20449;-66
2024/02/23 08:49:55;;;;;;;0.90;0.70;;;9.80;99.90;;;;;;4992877;28;20889;-66
2024/02/23 08:52:25;;;;;;;2.93;0.97;;;9.80;99.90;;;;;;4993287;28;20458;-67
2024/02/23 08:54:52;;;;;;;0.90;0.70;;;9.80;99.90;;;;;;4993316;28;20451;-65
2024/02/23 08:57:28;;;;;;;1.90;0.80;;;9.70;99.90;;;;;;4993490;28;20525;-66
2024/02/23 08:59:57;;;;;;;3.00;1.67;;;9.80;99.90;;;;;;4992672;28;20557;-65
2024/02/23 09:02:24;;;;;;;0.90;0.60;;;9.90;99.90;;;;;;4993098;28;20505;-66
2024/02/23 09:04:51;;;;;;;1.67;0.83;;;10.00;99.90;;;;;;4993472;28;20830;-66
2024/02/23 09:07:19;;;;;;;0.87;0.60;;;9.90;99.90;;;;;;4994129;28;20441;-66
2024/02/23 09:09:48;;;;;;;2.67;1.00;;;10.00;99.90;;;;;;4993535;28;20569;-66
2024/02/23 09:12:16;;;;;;;2.37;0.67;;;10.00;99.90;;;;;;4993240;28;20454;-66
2024/02/23 09:14:46;;;;;;;1.87;0.87;;;10.10;99.90;;;;;;4993101;28;20444;-67
2024/02/23 09:17:23;;;;;;;3.23;0.90;;;10.50;99.90;;;;;;4993413;28;20446;-66
2024/02/23 09:19:50;;;;;;;1.60;0.73;;;10.40;99.90;;;;;;4992832;28;20485;-65
2024/02/23 09:22:17;;;;;;;0.93;0.63;;;10.50;99.90;;;;;;4992953;28;20454;-66
2024/02/23 09:24:45;;;;;;;1.77;0.80;;;10.50;99.90;;;;;;4992576;28;20486;-66
2024/02/23 09:27:12;;;;;;;1.00;0.70;;;10.50;99.90;;;;;;4993209;28;20450;-66
2024/02/23 09:29:41;;;;;;;1.40;1.17;;;10.40;99.90;;;;;;4992698;28;20474;-65
2024/02/23 09:32:10;;;;;;;1.10;0.73;;;10.40;99.90;;;;;;4992747;28;20462;-66
2024/02/23 09:34:39;;;;;;;0.90;0.60;;;10.50;99.90;;;;;;4992983;28;20453;-66
2024/02/23 09:37:07;;;;;;;1.87;0.80;;;10.60;99.90;;;;;;4992429;28;20450;-65
2024/02/23 09:39:34;;;;;;;1.37;0.70;;;10.60;99.90;;;;;;4992292;28;20475;-64
2024/02/23 09:42:02;;;;;;;1.00;0.70;;;10.60;99.90;;;;;;4992674;28;20535;-65
2024/02/23 09:44:34;;;;;;;2.13;0.60;;;10.70;99.90;;;;;;4992456;28;20916;-66
2024/02/23 09:47:07;;;;;;;1.17;0.83;;;10.80;99.90;;;;;;4992583;28;20442;-66
2024/02/23 09:49:38;;;;;;;1.00;0.70;;;10.90;99.90;;;;;;4992088;28;20998;-66
2024/02/23 09:52:08;;;;;;;1.77;0.70;;;11.00;99.90;;;;;;4992493;28;20490;-66
2024/02/23 09:54:35;;;;;;;0.80;0.53;;;11.10;99.90;;;;;;4992223;28;20447;-66
2024/02/23 09:57:06;;;;;;;1.70;0.90;;;11.20;99.90;;;;;;4992323;28;20450;-66
2024/02/23 09:59:34;;;;;;;2.07;1.00;;;11.30;99.90;;;;;;4992620;28;20509;-66
2024/02/23 10:02:03;;;;;;;2.13;1.13;;;11.90;99.90;;;;;;4992817;28;20797;-65
2024/02/23 10:04:31;;;;;;;3.10;1.13;;;12.60;99.90;;;;;;4996727;28;20911;-65
2024/02/23 10:06:59;;;;;;;2.30;1.33;;;13.30;99.90;;;;;;4997067;28;20858;-65
2024/02/23 10:09:26;;;;;;;2.30;0.80;;;13.90;99.90;;;;;;4996217;28;20474;-66
2024/02/23 10:11:54;;;;;;;1.87;1.00;;;14.40;97.30;;;;;;4996483;28;20449;-69
2024/02/23 10:14:22;;;;;;;1.20;0.80;;;14.80;95.10;;;;;;4996677;28;20974;-65
2024/02/23 10:16:53;;;;;;;2.40;0.70;;;15.10;92.70;;;;;;4996444;28;20847;-66
2024/02/23 10:19:20;;;;;;;1.50;0.80;;;14.50;92.40;;;;;;4995729;28;20477;-66
2024/02/23 10:21:47;;;;;;;3.80;0.87;;;13.90;94.60;;;;;;4996242;28;20512;-66
2024/02/23 10:24:17;;;;;;;2.07;1.00;;;13.70;95.80;;;;;;4996083;28;20482;-67
2024/02/23 10:26:44;;;;;;;4.70;0.70;;;13.50;96.40;;;;;;4996157;28;20446;-66
2024/02/23 10:29:11;;;;;;;3.77;0.80;;;13.20;95.40;;;;;;4996096;28;20561;-66
2024/02/23 10:31:39;;;;;;;1.20;0.77;;;13.10;96.60;;;;;;4996401;28;20450;-66
2024/02/23 10:34:11;;;;;;;1.73;0.70;;;13.20;97.20;;;;;;4996177;28;20818;-66
2024/02/23 10:36:45;;;;;;;1.10;0.83;;;13.70;97.30;;;;;;4996276;28;20453;-66
2024/02/23 10:39:16;;;;;;;1.50;0.80;;;14.20;96.60;;;;;;4995577;28;20478;-66
2024/02/23 10:41:49;;;;;;;2.90;0.90;;;14.40;92.80;;;;;;4996212;28;20442;-65
2024/02/23 10:44:18;;;;;;;4.60;0.80;;;14.50;90.20;;;;;;4996309;28;20486;-66
2024/02/23 10:46:47;;;;;;;3.43;1.03;;;14.50;86.30;;;;;;4996209;28;20450;-66
2024/02/23 10:49:19;;;;;;;1.47;0.70;;;14.40;84.90;;;;;;4995517;28;20981;-66
2024/02/23 10:51:49;;;;;;;1.53;1.10;;;14.30;84.10;;;;;;4995639;28;20526;-66
2024/02/23 10:54:19;;;;;;;1.23;0.73;;;14.10;85.10;;;;;;4995977;28;20446;-67
2024/02/23 10:56:50;;;;;;;1.10;0.60;;;14.00;85.80;;;;;;4995272;28;20446;-65
2024/02/23 10:59:24;;;;;;;1.00;0.70;;;14.00;87.40;;;;;;4994925;28;20485;-70
2024/02/23 11:01:56;;;;;;;4.10;0.90;;;14.10;87.70;;;;;;4995281;28;20450;-66
2024/02/23 11:04:24;;;;;;;1.33;0.90;;;14.30;86.50;;;;;;4995392;28;20486;-67
2024/02/23 11:06:52;;;;;;;2.10;0.70;;;14.40;84.90;;;;;;4995307;28;20455;-66
2024/02/23 11:09:23;;;;;;;0.90;0.60;;;14.50;86.80;;;;;;4994828;28;20902;-66
2024/02/23 11:11:59;;;;;;;1.10;0.80;;;14.60;83.80;;;;;;4995588;28;20481;-65
2024/02/23 11:14:33;;;;;;;2.30;0.80;;;14.60;81.90;;;;;;4994626;28;20446;-65
2024/02/23 11:17:00;;;;;;;2.50;0.80;;;14.60;79.20;;;;;;4995397;28;20434;-66
2024/02/23 11:19:35;;;;;;;2.03;0.70;;;14.20;79.30;;;;;;4995454;28;20549;-66
2024/02/23 11:22:03;;;;;;;2.30;1.00;;;14.00;80.80;;;;;;4995492;28;20532;-66
2024/02/23 11:24:30;;;;;;;1.60;0.90;;;13.80;81.90;;;;;;4995355;28;20555;-66
2024/02/23 11:27:00;;;;;;;2.70;0.87;;;13.70;82.10;;;;;;4995691;28;20478;-66
2024/02/23 11:29:29;;;;;;;1.47;0.70;;;13.40;83.30;;;;;;4994746;28;20471;-66
2024/02/23 11:32:01;;;;;;;1.30;0.67;;;13.20;83.80;;;;;;4995272;28;20442;-66
2024/02/23 11:34:28;;;;;;;1.07;0.77;;;12.90;84.80;;;;;;4996022;28;20447;-66
2024/02/23 11:36:58;;;;;;;4.83;0.77;;;12.70;87.60;;;;;;4997425;28;20509;-66
2024/02/23 11:39:27;;;;;;;1.00;0.67;;;12.70;89.10;;;;;;4997275;28;20467;-66
2024/02/23 11:41:54;;;;;;;1.03;0.67;;;12.60;89.90;;;;;;4995823;28;20478;-66
2024/02/23 11:44:22;;;;;;;1.20;0.80;;;12.60;90.70;;;;;;4995865;28;20478;-66
2024/02/23 11:46:49;;;;;;;1.30;0.80;;;12.40;90.90;;;;;;4995322;28;20917;-66
2024/02/23 11:49:17;;;;;;;4.87;1.77;;;12.30;91.50;;;;;;4994834;28;20482;-65
2024/02/23 11:51:44;;;;;;;1.10;0.70;;;12.10;91.10;;;;;;4994597;28;20450;-66
2024/02/23 11:54:12;;;;;;;2.20;0.70;;;12.10;92.30;;;;;;4994735;28;20439;-65
2024/02/23 11:56:41;;;;;;;2.70;0.90;;;12.00;92.70;;;;;;4994681;28;20461;-66
2024/02/23 11:59:10;;;;;;;1.07;0.90;;;11.90;93.20;;;;;;4995000;28;20467;-66
2024/02/23 12:01:39;;;;;;;2.03;0.70;;;11.80;93.60;;;;;;4996344;28;20450;-66
2024/02/23 12:04:07;;;;;;;1.00;0.80;;;11.80;93.80;;;;;;4995907;28;20447;-66
2024/02/23 12:06:35;;;;;;;1.27;0.70;;;11.80;93.10;;;;;;4996211;28;20533;-66
2024/02/23 12:09:03;;;;;;;2.13;0.93;;;11.80;93.10;;;;;;4994037;28;20629;-66
2024/02/23 12:11:30;;;;;;;2.20;0.70;;;11.80;93.30;;;;;;4994080;28;21013;-66
2024/02/23 12:13:58;;;;;;;2.13;0.80;;;11.70;93.40;;;;;;4994108;28;20465;-66
2024/02/23 12:16:26;;;;;;;1.30;0.80;;;11.70;93.70;;;;;;4994243;28;20445;-65
2024/02/23 12:18:58;;;;;;;1.60;1.00;;;11.60;94.80;;;;;;4993908;28;20823;-66
2024/02/23 12:21:26;;;;;;;2.07;0.80;;;11.50;95.90;;;;;;4993920;28;20533;-65
2024/02/23 12:23:54;;;;;;;1.63;0.80;;;11.30;96.40;;;;;;4993738;28;20442;-66
2024/02/23 12:26:22;;;;;;;1.37;0.80;;;11.40;96.90;;;;;;4992897;28;20482;-66
2024/02/23 12:28:49;;;;;;;1.67;0.70;;;11.40;95.60;;;;;;4993727;28;20450;-66
2024/02/23 12:31:17;;;;;;;3.00;1.00;;;11.30;96.20;;;;;;4993403;28;20865;-65
2024/02/23 12:33:47;;;;;;;0.90;0.60;;;11.30;96.40;;;;;;4994283;28;20472;-65
2024/02/23 12:36:17;;;;;;;0.90;0.60;;;11.30;96.20;;;;;;4993916;28;20520;-66
2024/02/23 12:38:45;;;;;;;7.87;1.37;;;11.30;97.00;;;;;;4993558;28;20501;-65
2024/02/23 12:41:12;;;;;;;3.10;1.43;;;11.30;96.20;;;;;;4993375;28;20542;-65
2024/02/23 12:43:40;;;;;;;1.80;0.97;;;11.30;96.50;;;;;;4993642;28;20606;-66
2024/02/23 12:46:08;;;;;;;2.57;0.90;;;11.30;96.80;;;;;;4993568;28;20491;-65
2024/02/23 12:48:36;;;;;;;3.23;0.70;;;11.40;96.30;;;;;;4993560;28;20828;-65
2024/02/23 12:51:05;;;;;;;1.67;1.00;;;11.40;95.70;;;;;;4993261;28;20513;-65
2024/02/23 12:53:36;;;;;;;1.40;0.93;;;11.50;95.90;;;;;;4993458;28;20450;-66
2024/02/23 12:56:05;;;;;;;1.30;0.80;;;11.40;95.50;;;;;;4993260;28;20439;-65
2024/02/23 12:58:32;;;;;;;3.30;0.90;;;11.40;95.30;;;;;;4993238;28;20855;-64